sensor_id;sensor_type;location;lat;lon;timestamp;P1;durP1;ratioP1;P2;durP2;ratioP2
37487;SDS011;23342;52.620;13.300;2023-01-08T19:01:26;15.17;;;9.73;;
37487;SDS011;23342;52.620;13.300;2023-01-08T19:03:52;15.07;;;10.33;;
37487;SDS011;23342;52.620;13.300;2023-01-08T19:06:19;14.07;;;10.43;;
37487;SDS011;23342;52.620;13.300;2023-01-08T19:08:45;15.60;;;10.47;;
37487;SDS011;23342;52.620;13.300;2023-01-08T19:11:11;16.83;;;10.23;;
37487;SDS011;23342;52.620;13.300;2023-01-08T19:13:37;17.80;;;10.70;;
37487;SDS011;23342;52.620;13.300;2023-01-08T19:16:07;14.97;;;10.37;;
37487;SDS011;23342;52.620;13.300;2023-01-08T19:18:36;12.50;;;9.30;;
37487;SDS011;23342;52.620;13.300;2023-01-08T19:21:04;15.53;;;9.83;;
37487;SDS011;23342;52.620;13.300;2023-01-08T19:23:30;15.47;;;9.50;;
37487;SDS011;23342;52.620;13.300;2023-01-08T19:25:55;14.33;;;9.00;;
37487;SDS011;23342;52.620;13.300;2023-01-08T19:28:21;12.60;;;8.87;;
37487;SDS011;23342;52.620;13.300;2023-01-08T19:30:56;13.10;;;8.50;;
37487;SDS011;23342;52.620;13.300;2023-01-08T19:33:22;12.07;;;7.67;;
37487;SDS011;23342;52.620;13.300;2023-01-08T19:35:48;10.23;;;7.60;;
37487;SDS011;23342;52.620;13.300;2023-01-08T19:38:14;14.37;;;8.40;;
37487;SDS011;23342;52.620;13.300;2023-01-08T19:40:40;12.70;;;8.03;;
37487;SDS011;23342;52.620;13.300;2023-01-08T19:43:06;10.67;;;7.33;;
37487;SDS011;23342;52.620;13.300;2023-01-08T19:45:50;10.90;;;7.20;;
37487;SDS011;23342;52.620;13.300;2023-01-08T19:48:15;12.87;;;7.70;;
37487;SDS011;23342;52.620;13.300;2023-01-08T19:50:41;11.33;;;7.77;;
37487;SDS011;23342;52.620;13.300;2023-01-08T19:53:07;11.37;;;8.23;;
37487;SDS011;23342;52.620;13.300;2023-01-08T19:55:36;11.13;;;7.90;;
37487;SDS011;23342;52.620;13.300;2023-01-08T19:58:01;14.43;;;8.47;;
37487;SDS011;23342;52.620;13.300;2023-01-08T20:00:27;10.93;;;7.97;;
37487;SDS011;23342;52.620;13.300;2023-01-08T20:02:53;12.47;;;8.23;;
37487;SDS011;23342;52.620;13.300;2023-01-08T20:05:19;10.93;;;8.23;;
37487;SDS011;23342;52.620;13.300;2023-01-08T20:07:44;11.37;;;7.90;;
37487;SDS011;23342;52.620;13.300;2023-01-08T20:10:10;10.57;;;7.57;;
37487;SDS011;23342;52.620;13.300;2023-01-08T20:12:37;12.23;;;8.53;;
37487;SDS011;23342;52.620;13.300;2023-01-08T20:15:03;13.27;;;8.37;;
37487;SDS011;23342;52.620;13.300;2023-01-08T20:17:29;11.07;;;7.67;;
37487;SDS011;23342;52.620;13.300;2023-01-08T20:19:55;12.50;;;7.83;;
37487;SDS011;23342;52.620;13.300;2023-01-08T20:22:21;10.83;;;7.53;;
37487;SDS011;23342;52.620;13.300;2023-01-08T20:24:47;12.80;;;7.77;;
37487;SDS011;23342;52.620;13.300;2023-01-08T20:27:14;15.80;;;8.57;;
37487;SDS011;23342;52.620;13.300;2023-01-08T20:29:39;12.07;;;8.00;;
37487;SDS011;23342;52.620;13.300;2023-01-08T20:32:05;12.73;;;7.47;;
37487;SDS011;23342;52.620;13.300;2023-01-08T20:34:31;10.10;;;7.20;;
37487;SDS011;23342;52.620;13.300;2023-01-08T20:36:57;12.20;;;7.37;;
37487;SDS011;23342;52.620;13.300;2023-01-08T20:39:23;10.20;;;7.17;;
37487;SDS011;23342;52.620;13.300;2023-01-08T20:41:49;11.60;;;7.73;;
37487;SDS011;23342;52.620;13.300;2023-01-08T20:44:14;11.50;;;7.30;;
37487;SDS011;23342;52.620;13.300;2023-01-08T20:46:40;13.13;;;8.03;;
37487;SDS011;23342;52.620;13.300;2023-01-08T20:49:09;10.70;;;7.90;;
37487;SDS011;23342;52.620;13.300;2023-01-08T20:51:37;12.07;;;7.83;;
37487;SDS011;23342;52.620;13.300;2023-01-08T20:54:05;9.47;;;7.07;;
37487;SDS011;23342;52.620;13.300;2023-01-08T20:56:33;11.43;;;7.40;;
37487;SDS011;23342;52.620;13.300;2023-01-08T20:59:00;12.70;;;8.00;;
37487;SDS011;23342;52.620;13.300;2023-01-08T21:01:26;9.80;;;7.20;;
37487;SDS011;23342;52.620;13.300;2023-01-08T21:03:55;13.97;;;7.60;;
37487;SDS011;23342;52.620;13.300;2023-01-08T21:06:22;12.33;;;8.33;;
37487;SDS011;23342;52.620;13.300;2023-01-08T21:08:50;10.87;;;7.20;;
37487;SDS011;23342;52.620;13.300;2023-01-08T21:11:18;11.93;;;8.07;;
37487;SDS011;23342;52.620;13.300;2023-01-08T21:13:45;10.87;;;7.90;;
37487;SDS011;23342;52.620;13.300;2023-01-08T21:16:12;11.23;;;8.07;;
37487;SDS011;23342;52.620;13.300;2023-01-08T21:18:39;13.57;;;8.73;;
37487;SDS011;23342;52.620;13.300;2023-01-08T21:21:09;12.33;;;8.17;;
37487;SDS011;23342;52.620;13.300;2023-01-08T21:23:36;13.47;;;8.50;;
37487;SDS011;23342;52.620;13.300;2023-01-08T21:26:02;15.87;;;9.00;;
37487;SDS011;23342;52.620;13.300;2023-01-08T21:28:30;12.77;;;8.43;;
37487;SDS011;23342;52.620;13.300;2023-01-08T21:31:02;12.73;;;8.30;;
37487;SDS011;23342;52.620;13.300;2023-01-08T21:33:38;14.03;;;8.67;;
37487;SDS011;23342;52.620;13.300;2023-01-08T21:36:05;14.00;;;8.67;;
37487;SDS011;23342;52.620;13.300;2023-01-08T21:38:35;14.30;;;8.87;;
37487;SDS011;23342;52.620;13.300;2023-01-08T21:41:02;15.40;;;8.83;;
